This is the latest recevied weather packets stored in our database for station/object VA3PC-13. If no packets are shown the sender has not sent any weather packets the latest 10 day(s).
| Time | Temp. | Humidity | Pressure | Rain* | Wind** | Luminosity | Snow |
|---|---|---|---|---|---|---|---|
| 1778151919 | 2.78° C | 72% | 980.8 hPa | 0 mm | - | 16 W/m² | - |
| 1778151320 | 2.78° C | 73% | 980.8 hPa | 0 mm | - | 13 W/m² | - |
| 1778147139 | 2.78° C | 75% | 980.9 hPa | 0 mm | - | 0 W/m² | - |
| 1778145918 | 3.33° C | 70% | 980.7 hPa | 0 mm | - | 0 W/m² | - |
| 1778144716 | 3.33° C | 71% | 980.7 hPa | 0 mm | - | 0 W/m² | - |
| 1778144119 | 3.33° C | 72% | 980.7 hPa | 0 mm | - | 0 W/m² | - |
| 1778139920 | 3.33° C | 73% | 980.6 hPa | 0 mm | - | 0 W/m² | - |
| 1778132118 | 3.89° C | 65% | 981.1 hPa | 0 mm | - | 0 W/m² | - |
| 1778129118 | 4.44° C | 64% | 981.2 hPa | 0 mm | - | 0 W/m² | - |
| 1778128519 | 4.44° C | 62% | 981.2 hPa | 0 mm | - | 0 W/m² | - |
| 1778124920 | 5° C | 58% | 981.1 hPa | 0 mm | - | 0 W/m² | - |
| 1778120138 | 5.56° C | 60% | 981.1 hPa | 0 mm | - | 0 W/m² | - |
| 1778118318 | 5.56° C | 56% | 981.2 hPa | 0 mm | - | 0 W/m² | - |
| 1778117718 | 5.56° C | 56% | 981.1 hPa | 0 mm | - | 0 W/m² | - |
| 1778115319 | 6.11° C | 53% | 981 hPa | 0 mm | - | 0 W/m² | - |
| 1778112320 | 6.67° C | 55% | 980.5 hPa | 0 mm | - | 13 W/m² | - |
| 1778107518 | 8.33° C | 52% | 979.6 hPa | 0 mm | - | 88 W/m² | - |
| 1778105718 | 7.78° C | 54% | 979.5 hPa | 0 mm | - | 100 W/m² | - |
| 1778102120 | 8.89° C | 48% | 979.1 hPa | 0 mm | - | 147 W/m² | - |
| 1778100919 | 8.89° C | 47% | 978.9 hPa | 0 mm | - | 189 W/m² | - |
| 1778100321 | 8.89° C | 48% | 978.9 hPa | 0 mm | - | 165 W/m² | - |
| 1778097919 | 9.44° C | 47% | 978.9 hPa | 0 mm | - | 249 W/m² | - |
| 1778097317 | 8.89° C | 48% | 978.8 hPa | 0 mm | - | 555 W/m² | - |
| 1778096117 | 8.33° C | 50% | 979.3 hPa | 0 mm | - | 225 W/m² | - |
| 1778094338 | 8.89° C | 49% | 978.9 hPa | 0 mm | - | 544 W/m² | - |
* Rain latest hour (hover to see other rain measurements)
** Current wind speed in m/s (hover to see current wind gust speed)